Time;durP1;ratioP1;P1;durP2;ratioP2;P2;SDS_P1;SDS_P2;PMS_P1;PMS_P2;Temp;Humidity;BMP_temperature;BMP_pressure;BME280_temperature;BME280_humidity;BME280_pressure;Samples;Min_cycle;Max_cycle;Signal;HPM_P1;HPM_P2
2023/03/27 00:02:31;;;;;;;;;;;5.35;20.76;;;;;;2670881;76;20937;-92
2023/03/27 00:05:59;;;;;;;;;;;5.30;20.34;;;;;;2671884;76;20414;-91
2023/03/27 00:09:31;;;;;;;;;;;5.25;20.83;;;;;;2670986;76;20475;-92
2023/03/27 00:13:02;;;;;;;;;;;5.21;20.66;;;;;;2671832;76;20322;-92
2023/03/27 00:16:29;;;;;;;;;;;5.17;21.11;;;;;;2671864;76;20433;-92
2023/03/27 00:19:57;;;;;;;;;;;5.17;21.07;;;;;;2672047;76;20419;-92
2023/03/27 00:23:25;;;;;;;;;;;5.21;21.21;;;;;;2671278;76;20482;-92
2023/03/27 00:26:53;;;;;;;;;;;5.23;21.28;;;;;;2671432;76;20770;-92
2023/03/27 00:30:21;;;;;;;;;;;5.33;21.59;;;;;;2671833;76;20859;-92
2023/03/27 00:33:50;;;;;;;;;;;5.40;21.37;;;;;;2671614;76;20458;-92
2023/03/27 00:37:18;;;;;;;;;;;5.42;21.28;;;;;;2671573;76;20429;-92
2023/03/27 00:40:46;;;;;;;;;;;5.56;21.44;;;;;;2671497;76;20439;-92
2023/03/27 00:44:15;;;;;;;;;;;5.74;21.37;;;;;;2670945;76;20413;-92
2023/03/27 00:47:43;;;;;;;;;;;5.69;21.07;;;;;;2671542;76;20970;-92
2023/03/27 00:51:11;;;;;;;;;;;5.75;20.79;;;;;;2672674;76;20902;-92
2023/03/27 00:54:40;;;;;;;;;;;5.90;20.99;;;;;;2672050;76;20800;-91
2023/03/27 00:58:08;;;;;;;;;;;5.87;20.80;;;;;;2671916;76;20421;-92
2023/03/27 01:01:36;;;;;;;;;;;5.84;20.47;;;;;;2671077;76;20461;-92
2023/03/27 01:05:05;;;;;;;;;;;5.83;20.46;;;;;;2672100;76;20431;-92
2023/03/27 01:08:33;;;;;;;;;;;5.92;20.57;;;;;;2672630;76;20452;-92
2023/03/27 01:12:01;;;;;;;;;;;5.79;20.31;;;;;;2672067;76;20441;-91
2023/03/27 01:15:29;;;;;;;;;;;5.80;20.95;;;;;;2670968;76;20364;-93
2023/03/27 01:18:57;;;;;;;;;;;5.77;21.33;;;;;;2672125;76;20434;-92
2023/03/27 01:22:26;;;;;;;;;;;5.70;22.75;;;;;;2672125;76;20426;-92
2023/03/27 01:25:54;;;;;;;;;;;5.60;23.83;;;;;;2672556;76;20765;-91
2023/03/27 01:29:24;;;;;;;;;;;5.52;24.75;;;;;;2671832;76;20319;-92
2023/03/27 01:32:52;;;;;;;;;;;5.42;25.72;;;;;;2672017;76;20483;-90
2023/03/27 01:36:20;;;;;;;;;;;5.62;26.88;;;;;;2671706;76;20464;-91
2023/03/27 01:39:48;;;;;;;;;;;5.60;27.83;;;;;;2672219;76;20893;-90
2023/03/27 01:43:16;;;;;;;;;;;5.63;28.19;;;;;;2671849;76;20421;-92
2023/03/27 01:46:44;;;;;;;;;;;5.74;28.52;;;;;;2671404;76;20439;-91
2023/03/27 01:50:12;;;;;;;;;;;5.64;29.58;;;;;;2670622;76;20502;-90
2023/03/27 01:53:41;;;;;;;;;;;5.53;30.39;;;;;;2670866;76;20414;-91
2023/03/27 01:57:09;;;;;;;;;;;5.51;31.75;;;;;;2671345;76;20427;-90
2023/03/27 02:00:37;;;;;;;;;;;5.50;31.93;;;;;;2671179;76;20425;-91
2023/03/27 02:04:05;;;;;;;;;;;5.54;32.17;;;;;;2671726;76;20411;-91
2023/03/27 02:07:33;;;;;;;;;;;5.53;32.31;;;;;;2671273;76;20423;-90
2023/03/27 02:11:03;;;;;;;;;;;5.62;32.44;;;;;;2672603;76;20407;-91
2023/03/27 02:14:31;;;;;;;;;;;5.50;31.78;;;;;;2672334;76;20438;-90
2023/03/27 02:18:08;;;;;;;;;;;5.67;32.46;;;;;;2672246;76;20403;-91
2023/03/27 02:21:35;;;;;;;;;;;5.60;31.43;;;;;;2672212;76;20425;-91
2023/03/27 02:24:59;;;;;;;;;;;5.61;31.59;;;;;;2671901;76;20313;-90
2023/03/27 02:28:33;;;;;;;;;;;5.70;31.56;;;;;;2672353;76;20402;-90
2023/03/27 02:31:57;;;;;;;;;;;5.50;30.95;;;;;;2672495;76;20356;-92
2023/03/27 02:35:26;;;;;;;;;;;5.48;31.43;;;;;;2674095;76;20370;-93
2023/03/27 02:38:55;;;;;;;;;;;5.40;32.28;;;;;;2671827;76;20427;-92
2023/03/27 02:42:23;;;;;;;;;;;5.48;32.88;;;;;;2672576;76;20436;-92
2023/03/27 02:45:51;;;;;;;;;;;5.31;33.58;;;;;;2670629;76;21010;-91
2023/03/27 02:49:19;;;;;;;;;;;5.47;33.67;;;;;;2672005;76;20464;-91
2023/03/27 02:52:49;;;;;;;;;;;5.33;33.97;;;;;;2670514;76;20467;-91
2023/03/27 02:56:17;;;;;;;;;;;5.46;34.58;;;;;;2671701;76;20480;-93
2023/03/27 02:59:45;;;;;;;;;;;5.43;35.02;;;;;;2671583;76;20469;-94
2023/03/27 03:03:13;;;;;;;;;;;5.37;35.65;;;;;;2672332;76;20457;-93
2023/03/27 03:06:41;;;;;;;;;;;5.43;35.76;;;;;;2672077;76;20424;-94
2023/03/27 03:10:12;;;;;;;;;;;5.34;36.35;;;;;;2671571;76;20675;-94
2023/03/27 03:13:40;;;;;;;;;;;5.38;37.43;;;;;;2673088;76;20400;-94
2023/03/27 03:17:11;;;;;;;;;;;5.39;37.21;;;;;;2671405;76;21024;-94
2023/03/27 03:20:39;;;;;;;;;;;5.47;37.16;;;;;;2672024;76;20855;-93
2023/03/27 03:24:07;;;;;;;;;;;5.35;37.74;;;;;;2671257;76;20911;-92
2023/03/27 03:27:35;;;;;;;;;;;5.48;38.31;;;;;;2672767;76;20418;-94
2023/03/27 03:31:04;;;;;;;;;;;5.38;38.75;;;;;;2675840;76;20459;-94
2023/03/27 03:38:14;;;;;;;;;;;5.34;39.03;;;;;;2677272;76;20457;-94
2023/03/27 03:41:43;;;;;;;;;;;5.27;39.60;;;;;;2672324;76;20900;-93
2023/03/27 03:45:11;;;;;;;;;;;5.22;39.77;;;;;;2672420;76;20443;-93
2023/03/27 03:48:40;;;;;;;;;;;5.22;40.47;;;;;;2671839;76;20483;-93
2023/03/27 03:52:08;;;;;;;;;;;5.12;40.36;;;;;;2679134;76;20833;-92
2023/03/27 03:55:36;;;;;;;;;;;5.06;40.95;;;;;;2671531;76;20674;-93
2023/03/27 03:59:04;;;;;;;;;;;5.05;41.28;;;;;;2672003;76;20475;-92
2023/03/27 04:02:33;;;;;;;;;;;5.03;41.61;;;;;;2670058;76;20905;-92
2023/03/27 04:06:06;;;;;;;;;;;5.09;41.75;;;;;;2671358;76;20421;-93
2023/03/27 04:09:31;;;;;;;;;;;5.05;41.94;;;;;;2671541;76;20317;-94
2023/03/27 04:12:59;;;;;;;;;;;5.16;41.87;;;;;;2672810;76;20444;-93
2023/03/27 04:16:28;;;;;;;;;;;5.09;41.71;;;;;;2672648;76;20491;-94
2023/03/27 04:19:56;;;;;;;;;;;5.06;41.83;;;;;;2679396;76;20456;-95
2023/03/27 04:23:30;;;;;;;;;;;5.16;42.03;;;;;;2679215;76;20473;-96
2023/03/27 04:27:01;;;;;;;;;;;5.13;42.21;;;;;;2677719;76;20323;-93
2023/03/27 04:30:35;;;;;;;;;;;5.17;42.04;;;;;;2677775;76;20446;-94
2023/03/27 04:34:07;;;;;;;;;;;5.33;41.82;;;;;;2678165;76;20872;-95
2023/03/27 04:37:39;;;;;;;;;;;5.32;41.88;;;;;;2678199;76;20311;-95
2023/03/27 04:41:07;;;;;;;;;;;5.21;41.35;;;;;;2675127;76;20802;-93
2023/03/27 04:44:45;;;;;;;;;;;5.20;41.46;;;;;;2677602;76;20462;-94
2023/03/27 04:48:37;;;;;;;;;;;5.13;42.36;;;;;;2683444;76;20406;-96
2023/03/27 04:52:59;;;;;;;;;;;5.09;42.01;;;;;;2667243;76;20445;-96
2023/03/27 04:56:33;;;;;;;;;;;5.21;41.99;;;;;;2677553;76;20448;-93
2023/03/27 05:00:17;;;;;;;;;;;5.08;41.41;;;;;;2680898;76;20246;-95
2023/03/27 05:07:33;;;;;;;;;;;4.98;40.75;;;;;;2684238;76;20379;-96
2023/03/27 05:18:50;;;;;;;;;;;4.88;41.06;;;;;;2670074;76;20429;-96
2023/03/27 05:22:21;;;;;;;;;;;4.86;39.93;;;;;;2683135;76;20422;-96
2023/03/27 05:26:13;;;;;;;;;;;;;;;;;;;;;
2023/03/27 05:30:05;;;;;;;;;;;4.82;41.55;;;;;;2676146;76;20510;-95
2023/03/27 05:33:38;;;;;;;;;;;4.87;41.01;;;;;;2676178;76;20444;-94
2023/03/27 05:37:08;;;;;;;;;;;4.84;41.20;;;;;;2678077;76;20443;-94
2023/03/27 05:40:38;;;;;;;;;;;5.05;41.60;;;;;;2681562;76;20457;-96
2023/03/27 05:44:12;;;;;;;;;;;4.86;40.06;;;;;;2677334;76;20483;-95
2023/03/27 05:47:41;;;;;;;;;;;4.80;40.10;;;;;;2681452;76;20226;-96
2023/03/27 05:51:12;;;;;;;;;;;4.80;40.27;;;;;;2683836;76;20245;-96
2023/03/27 06:02:06;;;;;;;;;;;4.72;39.72;;;;;;2663253;76;20527;-96
2023/03/27 06:05:34;;;;;;;;;;;4.75;39.28;;;;;;2681843;76;20417;-95
2023/03/27 06:09:02;;;;;;;;;;;4.79;38.49;;;;;;2681924;76;20469;-96
2023/03/27 06:12:30;;;;;;;;;;;4.63;38.03;;;;;;2677758;76;20389;-95
2023/03/27 06:15:59;;;;;;;;;;;4.51;37.93;;;;;;2678941;76;20422;-95
2023/03/27 06:19:27;;;;;;;;;;;4.43;38.89;;;;;;2672614;76;20418;-96
2023/03/27 06:22:55;;;;;;;;;;;4.29;38.25;;;;;;2671296;76;20445;-95
2023/03/27 06:26:24;;;;;;;;;;;4.20;38.01;;;;;;2670922;76;20472;-93
2023/03/27 06:29:52;;;;;;;;;;;3.92;38.36;;;;;;2671588;76;20447;-95
2023/03/27 06:33:20;;;;;;;;;;;3.94;41.19;;;;;;2672821;76;20477;-93
2023/03/27 06:36:48;;;;;;;;;;;4.05;40.97;;;;;;2672379;76;20477;-94
2023/03/27 06:43:57;;;;;;;;;;;3.87;39.96;;;;;;2671784;76;20953;-94
2023/03/27 06:47:28;;;;;;;;;;;3.88;39.36;;;;;;2674629;76;20443;-95
2023/03/27 06:50:55;;;;;;;;;;;3.97;39.27;;;;;;2679669;76;20489;-94
2023/03/27 06:54:23;;;;;;;;;;;3.78;38.18;;;;;;2672046;76;20344;-93
2023/03/27 06:57:51;;;;;;;;;;;3.73;38.49;;;;;;2672295;76;20445;-94
2023/03/27 07:01:20;;;;;;;;;;;3.75;38.62;;;;;;2674897;76;20297;-95
2023/03/27 07:04:48;;;;;;;;;;;4.04;38.58;;;;;;2674221;76;20913;-95
2023/03/27 07:08:17;;;;;;;;;;;4.05;37.87;;;;;;2678558;76;20380;-94
2023/03/27 07:11:45;;;;;;;;;;;4.08;37.53;;;;;;2680357;76;20321;-92
2023/03/27 07:15:13;;;;;;;;;;;4.00;36.37;;;;;;2677466;76;20448;-94
2023/03/27 07:18:41;;;;;;;;;;;3.99;37.16;;;;;;2674878;76;21020;-95
2023/03/27 07:22:09;;;;;;;;;;;3.91;36.89;;;;;;2675672;76;20325;-96
2023/03/27 07:25:38;;;;;;;;;;;3.90;37.37;;;;;;2678334;76;20261;-92
2023/03/27 07:29:09;;;;;;;;;;;4.01;37.50;;;;;;2680460;76;20311;-94
2023/03/27 07:32:36;;;;;;;;;;;4.13;37.95;;;;;;2676725;76;20328;-94
2023/03/27 07:36:04;;;;;;;;;;;4.20;37.69;;;;;;2678204;76;20454;-96
2023/03/27 07:39:33;;;;;;;;;;;4.19;36.81;;;;;;2681097;76;20519;-96
2023/03/27 07:43:05;;;;;;;;;;;4.48;36.37;;;;;;2679664;76;20409;-96
2023/03/27 07:46:31;;;;;;;;;;;4.43;35.44;;;;;;2680141;76;20438;-95
2023/03/27 07:49:59;;;;;;;;;;;4.16;35.17;;;;;;2680504;76;20424;-95
2023/03/27 07:53:28;;;;;;;;;;;4.07;36.03;;;;;;2678948;76;20426;-96
2023/03/27 07:56:57;;;;;;;;;;;3.82;35.69;;;;;;2679796;76;20420;-95
2023/03/27 08:00:26;;;;;;;;;;;3.75;36.13;;;;;;2681314;76;20405;-95
2023/03/27 08:03:55;;;;;;;;;;;3.85;36.51;;;;;;2681249;76;20418;-92
2023/03/27 08:07:26;;;;;;;;;;;4.41;34.19;;;;;;2681755;76;20414;-95
2023/03/27 08:10:54;;;;;;;;;;;4.75;31.09;;;;;;2680829;76;20415;-95
2023/03/27 08:14:25;;;;;;;;;;;4.93;30.18;;;;;;2680446;76;20467;-95
2023/03/27 08:17:53;;;;;;;;;;;5.20;28.90;;;;;;2680107;76;20486;-95
2023/03/27 08:21:25;;;;;;;;;;;5.38;27.16;;;;;;2679503;76;20212;-95
2023/03/27 08:24:55;;;;;;;;;;;6.16;27.09;;;;;;2679775;76;20557;-95
2023/03/27 08:28:26;;;;;;;;;;;5.83;24.40;;;;;;2679686;76;20458;-95
2023/03/27 08:31:54;;;;;;;;;;;5.23;25.85;;;;;;2679181;76;20423;-95
2023/03/27 08:35:24;;;;;;;;;;;4.72;28.27;;;;;;2679062;76;20386;-95
2023/03/27 08:39:01;;;;;;;;;;;4.54;29.98;;;;;;2679062;76;20371;-96
2023/03/27 08:42:33;;;;;;;;;;;3.72;27.38;;;;;;2682264;76;20407;-95
2023/03/27 08:45:59;;;;;;;;;;;3.13;29.45;;;;;;2681158;76;20449;-93
2023/03/27 08:49:32;;;;;;;;;;;3.06;33.26;;;;;;2680422;76;20389;-95
2023/03/27 08:53:01;;;;;;;;;;;3.67;35.14;;;;;;2680288;76;20521;-96
2023/03/27 08:56:31;;;;;;;;;;;4.24;33.51;;;;;;2684090;76;20599;-95
2023/03/27 08:59:59;;;;;;;;;;;4.16;30.82;;;;;;2683879;76;20446;-96
2023/03/27 09:03:28;;;;;;;;;;;3.75;32.13;;;;;;2682678;76;20424;-96
2023/03/27 09:06:59;;;;;;;;;;;3.64;32.85;;;;;;2682482;76;20444;-95
2023/03/27 09:14:37;;;;;;;;;;;3.68;33.38;;;;;;2683140;76;20374;-96
2023/03/27 09:18:10;;;;;;;;;;;3.77;32.35;;;;;;2683705;76;20239;-96
2023/03/27 09:21:41;;;;;;;;;;;3.33;28.13;;;;;;2682327;76;20386;-95
2023/03/27 09:25:49;;;;;;;;;;;3.08;29.21;;;;;;2666269;76;20434;-96
2023/03/27 09:29:30;;;;;;;;;;;3.21;30.34;;;;;;2681291;76;20410;-95
2023/03/27 09:32:58;;;;;;;;;;;3.56;30.48;;;;;;2680230;76;20442;-96
2023/03/27 09:36:27;;;;;;;;;;;4.04;32.98;;;;;;2676285;76;20374;-94
2023/03/27 09:39:55;;;;;;;;;;;4.43;32.70;;;;;;2676743;76;20436;-94
2023/03/27 09:43:23;;;;;;;;;;;4.61;30.22;;;;;;2680674;76;20461;-95
2023/03/27 09:46:51;;;;;;;;;;;4.68;30.43;;;;;;2680457;76;20479;-94
2023/03/27 09:50:19;;;;;;;;;;;5.24;29.84;;;;;;2680868;76;20493;-94
2023/03/27 09:53:48;;;;;;;;;;;6.44;27.96;;;;;;2682433;76;20292;-95
2023/03/27 09:57:16;;;;;;;;;;;7.28;25.36;;;;;;2681586;76;20619;-94
2023/03/27 10:00:44;;;;;;;;;;;7.19;20.86;;;;;;2680948;76;20488;-94
2023/03/27 10:04:12;;;;;;;;;;;7.14;19.17;;;;;;2680281;76;20400;-94
2023/03/27 10:07:40;;;;;;;;;;;6.88;20.85;;;;;;2680257;76;20470;-95
2023/03/27 10:11:08;;;;;;;;;;;5.98;20.03;;;;;;2680093;76;20446;-94
2023/03/27 10:14:37;;;;;;;;;;;5.80;19.89;;;;;;2679833;76;20400;-94
2023/03/27 10:18:05;;;;;;;;;;;5.91;20.66;;;;;;2679781;76;20440;-94
2023/03/27 10:21:33;;;;;;;;;;;6.05;18.13;;;;;;2679539;76;20458;-94
2023/03/27 10:25:04;;;;;;;;;;;6.45;17.64;;;;;;2679866;76;20295;-95
2023/03/27 10:32:14;;;;;;;;;;;6.28;16.57;;;;;;2680725;76;20241;-96
2023/03/27 10:36:13;;;;;;;;;;;6.55;16.95;;;;;;2682818;76;20302;-96
2023/03/27 10:39:41;;;;;;;;;;;6.55;14.61;;;;;;2681552;76;20239;-96
2023/03/27 10:43:24;;;;;;;;;;;6.48;13.95;;;;;;2684751;76;20268;-96
2023/03/27 10:47:32;;;;;;;;;;;6.30;11.46;;;;;;2686888;76;20216;-96
2023/03/27 10:59:38;;;;;;;;;;;6.21;11.41;;;;;;2672744;76;20448;-96
2023/03/27 11:03:08;;;;;;;;;;;6.33;11.35;;;;;;2681720;76;20783;-96
2023/03/27 11:06:36;;;;;;;;;;;7.03;9.45;;;;;;2681137;76;20448;-96
2023/03/27 11:10:17;;;;;;;;;;;7.71;10.14;;;;;;2680607;76;20427;-96
2023/03/27 11:13:43;;;;;;;;;;;7.87;7.96;;;;;;2683771;76;20426;-96
2023/03/27 11:17:50;;;;;;;;;;;7.33;3.93;;;;;;2681108;76;21171;-95
2023/03/27 11:21:25;;;;;;;;;;;6.55;5.37;;;;;;2680222;76;20350;-95
2023/03/27 11:25:10;;;;;;;;;;;6.76;5.66;;;;;;2681773;76;20263;-96
2023/03/27 11:28:39;;;;;;;;;;;7.09;7.21;;;;;;2680210;76;20432;-96
2023/03/27 11:54:26;;;;;;;;;;;6.40;0.52;;;;;;2670807;76;20308;-96
2023/03/27 11:58:37;;;;;;;;;;;;;;;;;;;;;
2023/03/27 12:06:13;;;;;;;;;;;5.86;5.99;;;;;;2681509;76;20447;-96
2023/03/27 12:10:00;;;;;;;;;;;6.64;4.85;;;;;;2682461;76;20314;-96
2023/03/27 12:13:33;;;;;;;;;;;6.45;2.42;;;;;;2680921;76;21035;-96
2023/03/27 12:17:09;;;;;;;;;;;6.08;2.87;;;;;;2681143;76;20454;-96
2023/03/27 12:20:36;;;;;;;;;;;6.25;4.03;;;;;;2680758;76;20246;-96
2023/03/27 12:24:22;;;;;;;;;;;6.10;-1.18;;;;;;2681867;76;20483;-96
2023/03/27 12:31:33;;;;;;;;;;;6.35;-2.25;;;;;;2680164;76;20409;-96
2023/03/27 12:39:02;;;;;;;;;;;6.72;-3.90;;;;;;2678354;76;20437;-94
2023/03/27 12:42:38;;;;;;;;;;;6.65;117.55;;;;;;2672637;76;20492;-90
2023/03/27 12:46:06;;;;;;;;;;;6.13;116.25;;;;;;2669899;76;20490;-90
2023/03/27 12:49:34;;;;;;;;;;;5.84;118.08;;;;;;2670924;76;20439;-89
2023/03/27 12:53:03;;;;;;;;;;;5.62;118.15;;;;;;2671031;76;20472;-90
2023/03/27 12:56:31;;;;;;;;;;;5.55;117.14;;;;;;2671355;76;20437;-90
2023/03/27 13:00:07;;;;;;;;;;;5.56;117.41;;;;;;2670318;76;20738;-90
2023/03/27 13:03:29;;;;;;;;;;;5.86;117.29;;;;;;2671528;76;20928;-90
2023/03/27 13:06:58;;;;;;;;;;;6.90;-5.97;;;;;;2670841;76;20438;-90
2023/03/27 13:10:27;;;;;;;;;;;7.11;118.18;;;;;;2671505;76;20467;-88
2023/03/27 13:13:55;;;;;;;;;;;7.35;117.15;;;;;;2671518;76;20416;-90
2023/03/27 13:17:23;;;;;;;;;;;6.96;116.78;;;;;;2670715;76;20949;-89
2023/03/27 13:20:51;;;;;;;;;;;7.01;-5.89;;;;;;2670370;76;21185;-92
2023/03/27 13:24:19;;;;;;;;;;;6.95;117.87;;;;;;2671542;76;20368;-92
2023/03/27 13:27:49;;;;;;;;;;;6.56;117.40;;;;;;2671413;76;20547;-90
2023/03/27 13:31:17;;;;;;;;;;;6.46;118.44;;;;;;2670248;76;20754;-90
2023/03/27 13:34:46;;;;;;;;;;;7.52;118.18;;;;;;2671661;76;20412;-89
2023/03/27 13:38:14;;;;;;;;;;;7.92;116.49;;;;;;2671481;76;20455;-92
2023/03/27 13:41:44;;;;;;;;;;;7.33;113.19;;;;;;2671653;76;20896;-91
2023/03/27 13:45:12;;;;;;;;;;;6.86;114.06;;;;;;2672305;76;20540;-91
2023/03/27 13:48:40;;;;;;;;;;;6.76;115.24;;;;;;2671634;76;20440;-90
2023/03/27 13:52:09;;;;;;;;;;;6.82;114.19;;;;;;2670716;76;20482;-90
2023/03/27 13:55:38;;;;;;;;;;;6.75;110.48;;;;;;2671293;76;21012;-88
2023/03/27 13:59:06;;;;;;;;;;;6.95;108.24;;;;;;2669774;76;20318;-88
2023/03/27 14:02:35;;;;;;;;;;;7.24;108.47;;;;;;2670856;76;20312;-90
2023/03/27 14:06:03;;;;;;;;;;;6.66;108.17;;;;;;2669466;76;20938;-90
2023/03/27 14:09:31;;;;;;;;;;;6.22;109.35;;;;;;2670395;76;20415;-86
2023/03/27 14:12:59;;;;;;;;;;;5.90;110.52;;;;;;2669820;76;20728;-87
2023/03/27 14:16:27;;;;;;;;;;;5.63;112.54;;;;;;2670152;76;20617;-89
2023/03/27 14:19:56;;;;;;;;;;;5.71;113.93;;;;;;2671072;76;20665;-91
2023/03/27 14:23:25;;;;;;;;;;;5.80;114.76;;;;;;2669030;76;20438;-89
2023/03/27 14:26:53;;;;;;;;;;;6.00;115.61;;;;;;2670239;76;20507;-90
2023/03/27 14:30:21;;;;;;;;;;;6.04;116.25;;;;;;2670873;76;20456;-88
2023/03/27 14:33:49;;;;;;;;;;;5.90;118.24;;;;;;2668255;76;20988;-90
2023/03/27 14:37:21;;;;;;;;;;;5.70;118.66;;;;;;2670042;76;20474;-89
2023/03/27 14:40:50;;;;;;;;;;;5.24;-5.95;;;;;;2671001;76;20501;-89
2023/03/27 14:44:17;;;;;;;;;;;4.95;-5.19;;;;;;2670281;76;20485;-88
2023/03/27 14:47:45;;;;;;;;;;;4.92;-4.50;;;;;;2671044;76;20458;-89
2023/03/27 14:51:13;;;;;;;;;;;4.95;-5.60;;;;;;2667091;76;20590;-90
2023/03/27 14:54:41;;;;;;;;;;;4.94;118.82;;;;;;2669739;76;20429;-90
2023/03/27 14:58:09;;;;;;;;;;;4.97;118.50;;;;;;2669092;76;20454;-89
2023/03/27 15:01:39;;;;;;;;;;;5.08;118.27;;;;;;2667888;76;20431;-87
2023/03/27 15:05:10;;;;;;;;;;;5.19;117.92;;;;;;2667346;76;20483;-91
2023/03/27 15:08:38;;;;;;;;;;;5.57;118.81;;;;;;2669460;76;20451;-90
2023/03/27 15:12:07;;;;;;;;;;;7.33;118.58;;;;;;2669827;76;20462;-90
2023/03/27 15:15:37;;;;;;;;;;;13.19;110.50;;;;;;2669338;76;20426;-90
2023/03/27 15:19:08;;;;;;;;;;;16.39;100.83;;;;;;2669784;76;20444;-90
2023/03/27 15:22:35;;;;;;;;;;;14.68;94.44;;;;;;2668524;76;20492;-90
2023/03/27 15:26:03;;;;;;;;;;;16.35;96.10;;;;;;2668196;76;20418;-90
2023/03/27 15:29:31;;;;;;;;;;;16.04;93.05;;;;;;2668126;76;20468;-89
2023/03/27 15:33:04;;;;;;;;;;;15.86;94.18;;;;;;2669466;76;20466;-90
2023/03/27 15:36:31;;;;;;;;;;;14.86;91.10;;;;;;2668538;76;20480;-89
2023/03/27 15:39:59;;;;;;;;;;;17.29;89.62;;;;;;2668617;76;20456;-89
2023/03/27 15:43:27;;;;;;;;;;;17.22;91.15;;;;;;2668703;76;20470;-89
2023/03/27 15:46:56;;;;;;;;;;;15.81;95.18;;;;;;2669948;76;20530;-90
2023/03/27 15:50:26;;;;;;;;;;;12.05;97.59;;;;;;2668374;76;20433;-89
2023/03/27 15:53:54;;;;;;;;;;;8.78;103.41;;;;;;2667739;76;20947;-88
2023/03/27 15:57:22;;;;;;;;;;;7.77;108.56;;;;;;2668969;76;20476;-89
2023/03/27 16:00:50;;;;;;;;;;;6.49;113.80;;;;;;2667204;76;20452;-90
2023/03/27 16:04:18;;;;;;;;;;;5.21;-2.12;;;;;;2669674;76;20441;-90
2023/03/27 16:07:47;;;;;;;;;;;7.82;5.52;;;;;;2668340;76;20597;-89
2023/03/27 16:11:15;;;;;;;;;;;10.72;3.18;;;;;;2669402;76;20412;-89
2023/03/27 16:14:43;;;;;;;;;;;6.12;1.60;;;;;;2669659;76;20440;-89
2023/03/27 16:18:12;;;;;;;;;;;4.76;7.80;;;;;;2671026;76;20444;-89
2023/03/27 16:21:40;;;;;;;;;;;4.72;10.56;;;;;;2668197;76;20995;-90
2023/03/27 16:25:11;;;;;;;;;;;5.07;10.60;;;;;;2667894;76;20444;-90
2023/03/27 16:28:39;;;;;;;;;;;5.07;9.50;;;;;;2670087;76;20504;-88
2023/03/27 16:32:07;;;;;;;;;;;4.68;7.77;;;;;;2670483;76;20894;-90
2023/03/27 16:35:37;;;;;;;;;;;4.45;6.96;;;;;;2668981;76;20484;-89
2023/03/27 16:39:07;;;;;;;;;;;4.23;6.15;;;;;;2669873;76;20503;-90
2023/03/27 16:42:38;;;;;;;;;;;4.37;4.96;;;;;;2667922;76;20542;-88
2023/03/27 16:46:08;;;;;;;;;;;4.57;2.23;;;;;;2667572;76;20449;-90
2023/03/27 16:49:36;;;;;;;;;;;4.06;3.27;;;;;;2667654;76;20469;-89
2023/03/27 16:53:05;;;;;;;;;;;3.74;4.65;;;;;;2667280;76;20490;-87
2023/03/27 16:56:33;;;;;;;;;;;3.80;6.25;;;;;;2669045;76;20443;-89
2023/03/27 17:00:02;;;;;;;;;;;3.69;6.58;;;;;;2667631;76;20511;-89
2023/03/27 17:03:30;;;;;;;;;;;3.74;7.08;;;;;;2668240;76;20882;-87
2023/03/27 17:06:58;;;;;;;;;;;3.83;6.54;;;;;;2667305;76;20420;-88
2023/03/27 17:10:28;;;;;;;;;;;3.63;6.10;;;;;;2667960;76;20489;-87
2023/03/27 17:13:58;;;;;;;;;;;3.36;6.51;;;;;;2668780;76;20431;-87
2023/03/27 17:17:29;;;;;;;;;;;3.23;6.36;;;;;;2666591;76;20421;-90
2023/03/27 17:20:56;;;;;;;;;;;3.21;6.57;;;;;;2671612;76;20343;-90
2023/03/27 17:24:24;;;;;;;;;;;3.26;6.71;;;;;;2671157;76;20325;-90
2023/03/27 17:27:52;;;;;;;;;;;3.29;6.86;;;;;;2671235;76;20349;-89
2023/03/27 17:31:20;;;;;;;;;;;3.32;7.02;;;;;;2670758;76;20336;-90
2023/03/27 17:34:50;;;;;;;;;;;3.38;7.22;;;;;;2670775;76;20330;-90
2023/03/27 17:38:21;;;;;;;;;;;3.31;8.27;;;;;;2668797;76;20457;-90
2023/03/27 17:41:49;;;;;;;;;;;2.24;17.08;;;;;;2666697;76;20782;-89
2023/03/27 17:45:17;;;;;;;;;;;2.00;22.95;;;;;;2668321;76;20411;-88
2023/03/27 17:48:48;;;;;;;;;;;2.02;27.15;;;;;;2667664;76;20434;-89
2023/03/27 17:52:22;;;;;;;;;;;2.15;28.81;;;;;;2667727;76;20938;-90
2023/03/27 17:55:48;;;;;;;;;;;2.28;29.22;;;;;;2668924;76;20892;-90
2023/03/27 17:59:18;;;;;;;;;;;2.32;28.70;;;;;;2669419;76;20486;-90
2023/03/27 18:02:46;;;;;;;;;;;2.38;27.74;;;;;;2668992;76;20415;-89
2023/03/27 18:06:16;;;;;;;;;;;2.47;27.26;;;;;;2669645;76;20440;-89
2023/03/27 18:09:49;;;;;;;;;;;2.56;26.95;;;;;;2668908;76;20951;-91
2023/03/27 18:13:14;;;;;;;;;;;2.60;26.35;;;;;;2669954;76;20443;-90
2023/03/27 18:16:42;;;;;;;;;;;2.56;25.46;;;;;;2668577;76;20413;-90
2023/03/27 18:20:10;;;;;;;;;;;2.52;25.09;;;;;;2669344;76;20822;-90
2023/03/27 18:23:38;;;;;;;;;;;2.49;24.62;;;;;;2668556;76;20475;-89
2023/03/27 18:27:06;;;;;;;;;;;2.47;24.60;;;;;;2668118;76;21132;-91
2023/03/27 18:30:35;;;;;;;;;;;2.54;25.04;;;;;;2668757;76;20927;-90
2023/03/27 18:34:03;;;;;;;;;;;2.46;24.94;;;;;;2670233;76;20428;-90
2023/03/27 18:37:32;;;;;;;;;;;2.44;25.60;;;;;;2669028;76;20439;-90
2023/03/27 18:41:00;;;;;;;;;;;2.35;24.88;;;;;;2668480;76;21221;-90
2023/03/27 18:44:28;;;;;;;;;;;2.13;24.87;;;;;;2668840;76;20933;-90
2023/03/27 18:47:56;;;;;;;;;;;2.23;25.80;;;;;;2668358;76;20738;-89
2023/03/27 18:51:25;;;;;;;;;;;2.10;25.68;;;;;;2668429;76;20451;-88
2023/03/27 18:54:53;;;;;;;;;;;2.25;26.36;;;;;;2669140;76;20448;-90
2023/03/27 18:58:23;;;;;;;;;;;2.09;26.84;;;;;;2668169;76;20475;-89
2023/03/27 19:01:51;;;;;;;;;;;1.87;28.07;;;;;;2666839;76;20942;-90
2023/03/27 19:05:19;;;;;;;;;;;1.99;28.58;;;;;;2669826;76;20997;-89
2023/03/27 19:08:47;;;;;;;;;;;2.05;28.61;;;;;;2668876;76;20862;-91
2023/03/27 19:12:15;;;;;;;;;;;2.02;28.61;;;;;;2669210;76;20459;-90
2023/03/27 19:15:44;;;;;;;;;;;2.07;28.55;;;;;;2667910;76;20916;-90
2023/03/27 19:19:15;;;;;;;;;;;2.03;27.60;;;;;;2667572;76;20910;-92
2023/03/27 19:22:43;;;;;;;;;;;1.90;27.89;;;;;;2674944;76;20424;-92
2023/03/27 19:26:11;;;;;;;;;;;1.92;27.16;;;;;;2678309;76;20463;-90
2023/03/27 19:29:40;;;;;;;;;;;1.85;26.22;;;;;;2681992;76;20420;-90
2023/03/27 19:33:08;;;;;;;;;;;1.76;26.06;;;;;;2683457;76;20396;-88
2023/03/27 19:36:36;;;;;;;;;;;1.83;25.59;;;;;;2683928;76;20422;-88
2023/03/27 19:40:04;;;;;;;;;;;1.85;24.20;;;;;;2682656;76;20274;-88
2023/03/27 19:43:32;;;;;;;;;;;1.75;24.11;;;;;;2683263;76;20444;-90
2023/03/27 19:47:02;;;;;;;;;;;1.73;23.60;;;;;;2681821;76;20424;-90
2023/03/27 19:50:30;;;;;;;;;;;1.56;23.76;;;;;;2681740;76;20533;-89
2023/03/27 19:53:58;;;;;;;;;;;1.54;23.62;;;;;;2682112;76;20307;-89
2023/03/27 19:57:26;;;;;;;;;;;1.42;23.58;;;;;;2681568;76;20374;-88
2023/03/27 20:00:54;;;;;;;;;;;1.46;22.98;;;;;;2677457;76;20401;-91
2023/03/27 20:04:22;;;;;;;;;;;1.39;23.27;;;;;;2674359;76;20431;-89
2023/03/27 20:07:50;;;;;;;;;;;1.31;23.17;;;;;;2672340;76;20431;-91
2023/03/27 20:11:19;;;;;;;;;;;1.31;22.20;;;;;;2671130;76;20314;-92
2023/03/27 20:14:47;;;;;;;;;;;1.25;21.86;;;;;;2668924;76;20469;-92
2023/03/27 20:18:16;;;;;;;;;;;1.22;21.79;;;;;;2669308;76;20420;-92
2023/03/27 20:21:45;;;;;;;;;;;1.27;21.86;;;;;;2670288;76;20428;-92
2023/03/27 20:25:13;;;;;;;;;;;1.10;22.22;;;;;;2670613;76;20480;-91
2023/03/27 20:28:41;;;;;;;;;;;1.19;22.14;;;;;;2669580;76;20459;-91
2023/03/27 20:32:09;;;;;;;;;;;1.19;20.82;;;;;;2670629;76;20297;-92
2023/03/27 20:35:38;;;;;;;;;;;1.18;21.33;;;;;;2671139;76;20498;-91
2023/03/27 20:39:06;;;;;;;;;;;1.13;20.66;;;;;;2670578;76;20459;-90
2023/03/27 20:42:37;;;;;;;;;;;1.19;20.54;;;;;;2670375;76;20473;-90
2023/03/27 20:46:05;;;;;;;;;;;1.09;20.18;;;;;;2669023;76;20415;-89
2023/03/27 20:49:33;;;;;;;;;;;1.05;19.80;;;;;;2671959;76;20455;-91
2023/03/27 20:53:03;;;;;;;;;;;1.07;20.28;;;;;;2670873;76;20443;-91
2023/03/27 20:56:31;;;;;;;;;;;1.05;20.93;;;;;;2669933;76;20775;-91
2023/03/27 20:59:59;;;;;;;;;;;1.08;20.54;;;;;;2669926;76;20944;-91
2023/03/27 21:03:30;;;;;;;;;;;1.04;20.13;;;;;;2668765;76;20305;-91
2023/03/27 21:06:57;;;;;;;;;;;1.08;19.79;;;;;;2669414;76;20457;-90
2023/03/27 21:10:25;;;;;;;;;;;1.01;20.20;;;;;;2669925;76;20465;-91
2023/03/27 21:13:53;;;;;;;;;;;0.96;19.92;;;;;;2670464;76;20448;-91
2023/03/27 21:17:21;;;;;;;;;;;1.03;19.79;;;;;;2666579;76;20491;-90
2023/03/27 21:20:49;;;;;;;;;;;0.93;19.54;;;;;;2667689;76;20464;-91
2023/03/27 21:24:18;;;;;;;;;;;0.99;19.34;;;;;;2667719;76;21253;-91
2023/03/27 21:27:46;;;;;;;;;;;0.96;19.64;;;;;;2668096;76;20429;-89
2023/03/27 21:31:14;;;;;;;;;;;0.98;19.77;;;;;;2669582;76;20396;-91
2023/03/27 21:34:43;;;;;;;;;;;0.97;19.81;;;;;;2668130;76;20383;-90
2023/03/27 21:38:11;;;;;;;;;;;0.92;20.23;;;;;;2667582;76;20497;-91
2023/03/27 21:41:39;;;;;;;;;;;0.93;20.32;;;;;;2670593;76;20942;-91
2023/03/27 21:45:07;;;;;;;;;;;0.88;20.16;;;;;;2669514;76;20413;-91
2023/03/27 21:48:36;;;;;;;;;;;0.84;20.60;;;;;;2669563;76;20466;-91
2023/03/27 21:52:04;;;;;;;;;;;0.92;20.50;;;;;;2668863;76;20452;-91
2023/03/27 21:55:34;;;;;;;;;;;0.81;20.61;;;;;;2670364;76;21361;-91
2023/03/27 21:59:02;;;;;;;;;;;0.87;20.18;;;;;;2669812;76;20474;-91